Time;durP1;ratioP1;P1;durP2;ratioP2;P2;SDS_P1;SDS_P2;PMS_P1;PMS_P2;Temp;Humidity;BMP_temperature;BMP_pressure;BME280_temperature;BME280_humidity;BME280_pressure;Samples;Min_cycle;Max_cycle;Signal;HPM_P1;HPM_P2
2023/10/27 00:00:37;;;;;;;38.07;25.47;;;9.20;86.80;;;;;;5026755;28;20076;-65
2023/10/27 00:03:03;;;;;;;39.07;26.37;;;9.20;86.80;;;;;;5032647;28;20041;-64
2023/10/27 00:05:30;;;;;;;39.97;25.57;;;9.20;86.70;;;;;;5027807;28;20448;-64
2023/10/27 00:07:56;;;;;;;32.53;25.00;;;9.20;86.70;;;;;;5031902;28;20071;-64
2023/10/27 00:10:22;;;;;;;36.07;25.10;;;9.10;86.70;;;;;;5031962;28;20052;-64
2023/10/27 00:12:48;;;;;;;41.20;25.60;;;9.10;86.70;;;;;;5035710;28;20411;-64
2023/10/27 00:15:14;;;;;;;41.43;25.20;;;9.00;86.60;;;;;;5025988;28;20053;-63
2023/10/27 00:17:40;;;;;;;37.37;24.60;;;9.00;86.60;;;;;;5028617;28;20064;-64
2023/10/27 00:20:06;;;;;;;40.30;25.93;;;9.00;86.50;;;;;;5026377;28;20132;-64
2023/10/27 00:22:33;;;;;;;41.03;25.97;;;9.00;86.50;;;;;;5028180;28;20187;-64
2023/10/27 00:25:02;;;;;;;38.83;25.97;;;9.00;86.60;;;;;;5027873;28;20058;-64
2023/10/27 00:27:28;;;;;;;41.03;27.03;;;9.00;86.70;;;;;;5028881;28;20112;-64
2023/10/27 00:29:54;;;;;;;42.43;28.10;;;9.00;86.70;;;;;;5028398;28;20049;-65
2023/10/27 00:32:19;;;;;;;43.60;28.00;;;9.00;86.90;;;;;;5030225;28;20073;-64
2023/10/27 00:34:45;;;;;;;44.47;28.13;;;9.00;87.00;;;;;;5036283;28;20050;-64
2023/10/27 00:37:11;;;;;;;47.47;29.23;;;9.00;87.00;;;;;;5021765;28;20053;-64
2023/10/27 00:39:39;;;;;;;43.73;27.63;;;9.00;87.00;;;;;;5031263;28;20523;-64
2023/10/27 00:42:05;;;;;;;45.07;28.10;;;9.00;87.10;;;;;;5020143;28;20094;-64
2023/10/27 00:44:31;;;;;;;40.77;28.50;;;9.00;87.10;;;;;;5032360;28;20055;-63
2023/10/27 00:46:57;;;;;;;43.53;27.50;;;9.00;87.10;;;;;;5020657;28;20045;-63
2023/10/27 00:49:24;;;;;;;40.47;27.97;;;9.00;87.10;;;;;;5030146;28;20136;-63
2023/10/27 00:51:50;;;;;;;37.97;26.60;;;9.00;87.10;;;;;;5031134;28;20050;-64
2023/10/27 00:54:17;;;;;;;40.00;26.53;;;9.00;87.10;;;;;;5031743;28;20053;-63
2023/10/27 00:56:44;;;;;;;40.27;26.03;;;9.00;87.00;;;;;;5026015;28;20046;-64
2023/10/27 00:59:12;;;;;;;37.00;24.57;;;9.00;86.90;;;;;;5031094;28;20053;-64
2023/10/27 01:01:38;;;;;;;33.53;23.47;;;9.00;86.90;;;;;;5031846;28;20288;-64
2023/10/27 01:04:04;;;;;;;29.93;21.97;;;9.00;86.90;;;;;;5027285;28;20060;-64
2023/10/27 01:06:30;;;;;;;30.37;20.63;;;9.00;86.80;;;;;;5031362;28;20084;-64
2023/10/27 01:08:55;;;;;;;29.07;20.93;;;9.00;86.70;;;;;;5031852;28;20423;-64
2023/10/27 01:11:22;;;;;;;31.17;21.53;;;9.00;86.70;;;;;;5031693;28;20124;-64
2023/10/27 01:13:52;;;;;;;29.23;21.27;;;9.00;86.70;;;;;;5032083;28;20037;-64
2023/10/27 01:16:18;;;;;;;32.47;22.63;;;9.00;86.70;;;;;;5028040;28;20053;-64
2023/10/27 01:18:44;;;;;;;33.30;23.90;;;9.00;86.70;;;;;;5031109;28;20053;-64
2023/10/27 01:21:09;;;;;;;35.30;23.63;;;9.00;86.70;;;;;;5017767;28;20050;-64
2023/10/27 01:23:35;;;;;;;32.77;21.90;;;9.00;86.70;;;;;;5032017;28;20072;-63
2023/10/27 01:26:03;;;;;;;32.97;22.57;;;9.00;86.70;;;;;;5031304;28;20057;-64
2023/10/27 01:28:29;;;;;;;33.53;22.80;;;9.00;86.70;;;;;;5030759;28;20071;-64
2023/10/27 01:30:56;;;;;;;34.03;22.23;;;9.00;86.70;;;;;;5030665;28;20045;-63
2023/10/27 01:33:23;;;;;;;33.07;22.93;;;9.10;86.70;;;;;;5038358;28;20045;-64
2023/10/27 01:35:49;;;;;;;32.47;23.10;;;9.00;86.80;;;;;;5027239;28;20541;-64
2023/10/27 01:38:15;;;;;;;40.57;23.93;;;9.00;86.70;;;;;;5031558;28;20056;-63
2023/10/27 01:40:40;;;;;;;33.40;23.70;;;9.00;86.90;;;;;;5030443;28;20121;-64
2023/10/27 01:43:06;;;;;;;39.83;25.37;;;9.00;86.80;;;;;;5009646;28;20056;-64
2023/10/27 01:45:32;;;;;;;40.37;25.80;;;9.00;86.90;;;;;;5015694;28;20045;-64
2023/10/27 01:47:57;;;;;;;40.40;26.13;;;9.00;86.90;;;;;;5020106;28;20059;-64
2023/10/27 01:50:23;;;;;;;39.93;26.53;;;9.00;87.00;;;;;;5030956;28;20381;-63
2023/10/27 01:52:49;;;;;;;41.00;26.33;;;9.00;87.00;;;;;;5027483;28;20041;-64
2023/10/27 01:55:14;;;;;;;38.93;26.83;;;9.00;87.00;;;;;;5025228;28;20485;-64
2023/10/27 01:57:40;;;;;;;47.27;27.77;;;9.00;87.10;;;;;;5030212;28;20099;-64
2023/10/27 02:00:07;;;;;;;46.03;27.20;;;9.00;87.00;;;;;;5030716;28;20488;-64
2023/10/27 02:02:34;;;;;;;39.23;26.50;;;9.00;87.00;;;;;;5030384;28;20099;-63
2023/10/27 02:05:04;;;;;;;43.43;28.50;;;9.00;87.10;;;;;;5026602;28;20060;-64
2023/10/27 02:07:31;;;;;;;44.53;28.17;;;9.00;87.20;;;;;;5030508;28;20501;-64
2023/10/27 02:09:59;;;;;;;44.07;28.67;;;9.00;87.10;;;;;;5032751;28;20659;-64
2023/10/27 02:12:27;;;;;;;41.70;27.13;;;9.00;87.10;;;;;;5040373;28;20121;-64
2023/10/27 02:14:53;;;;;;;51.53;29.47;;;9.00;87.10;;;;;;5031742;28;20130;-64
2023/10/27 02:17:19;;;;;;;47.23;29.10;;;9.00;87.10;;;;;;5019842;28;20496;-64
2023/10/27 02:19:45;;;;;;;50.30;29.33;;;9.00;87.10;;;;;;5010787;28;20042;-64
2023/10/27 02:22:10;;;;;;;45.20;27.90;;;9.00;87.10;;;;;;5020184;28;20050;-64
2023/10/27 02:24:38;;;;;;;49.33;30.33;;;9.00;87.10;;;;;;5030692;28;20045;-64
2023/10/27 02:27:03;;;;;;;47.90;28.63;;;9.00;87.10;;;;;;5029900;28;20560;-64
2023/10/27 02:29:29;;;;;;;46.87;29.80;;;9.00;87.20;;;;;;5029996;28;20132;-64
2023/10/27 02:31:55;;;;;;;42.17;27.33;;;9.00;87.10;;;;;;5030410;28;20050;-63
2023/10/27 02:34:21;;;;;;;43.17;27.97;;;9.00;87.20;;;;;;5036324;28;20048;-63
2023/10/27 02:36:46;;;;;;;44.10;29.30;;;9.00;87.30;;;;;;5027796;28;20080;-64
2023/10/27 02:39:12;;;;;;;43.03;29.03;;;9.00;87.30;;;;;;5029246;28;20045;-64
2023/10/27 02:41:38;;;;;;;40.47;27.90;;;9.00;87.30;;;;;;5022283;28;20480;-64
2023/10/27 02:44:04;;;;;;;40.70;28.40;;;9.00;87.30;;;;;;5026747;28;20042;-63
2023/10/27 02:46:30;;;;;;;43.17;28.27;;;9.00;87.30;;;;;;5021318;28;20131;-64
2023/10/27 02:48:56;;;;;;;42.57;27.97;;;9.00;87.20;;;;;;5025770;28;20044;-64
2023/10/27 02:51:21;;;;;;;41.23;27.97;;;9.00;87.30;;;;;;5030188;28;20045;-63
2023/10/27 02:53:47;;;;;;;36.70;26.23;;;9.00;87.30;;;;;;5030817;28;20072;-64
2023/10/27 02:56:13;;;;;;;36.77;26.20;;;8.90;87.20;;;;;;5029262;28;20099;-64
2023/10/27 02:58:39;;;;;;;39.97;27.33;;;8.90;87.30;;;;;;5030276;28;20092;-64
2023/10/27 03:01:09;;;;;;;38.07;26.90;;;8.90;87.30;;;;;;5028109;28;20099;-64
2023/10/27 03:03:37;;;;;;;39.80;26.70;;;8.90;87.20;;;;;;5029623;28;20037;-64
2023/10/27 03:06:03;;;;;;;36.57;26.80;;;8.90;87.20;;;;;;5021357;28;20073;-64
2023/10/27 03:08:30;;;;;;;39.70;27.43;;;8.90;87.20;;;;;;5030524;28;20666;-64
2023/10/27 03:10:56;;;;;;;38.73;26.60;;;8.90;87.20;;;;;;5041129;28;20049;-64
2023/10/27 03:13:22;;;;;;;39.80;26.00;;;8.90;87.20;;;;;;5030670;28;20091;-64
2023/10/27 03:15:48;;;;;;;43.23;26.03;;;8.90;87.20;;;;;;5027692;28;20108;-64
2023/10/27 03:18:13;;;;;;;41.33;27.13;;;8.90;87.20;;;;;;5029361;28;20057;-64
2023/10/27 03:20:39;;;;;;;41.73;26.83;;;8.90;87.20;;;;;;5019214;28;20459;-64
2023/10/27 03:23:04;;;;;;;39.63;26.47;;;8.90;87.20;;;;;;5013922;28;20057;-63
2023/10/27 03:25:30;;;;;;;39.50;25.83;;;8.80;87.20;;;;;;5029526;28;20080;-64
2023/10/27 03:27:56;;;;;;;37.00;25.67;;;8.80;87.20;;;;;;5029749;28;20058;-64
2023/10/27 03:30:22;;;;;;;39.17;26.00;;;8.80;87.20;;;;;;5017739;28;20049;-64
2023/10/27 03:32:48;;;;;;;39.43;25.80;;;8.80;87.20;;;;;;5029921;28;20045;-64
2023/10/27 03:35:14;;;;;;;37.80;26.20;;;8.80;87.20;;;;;;5034804;28;20041;-64
2023/10/27 03:37:40;;;;;;;41.73;26.30;;;8.80;87.20;;;;;;5016822;28;20136;-64
2023/10/27 03:40:07;;;;;;;39.47;24.47;;;8.70;87.20;;;;;;5018443;28;20132;-64
2023/10/27 03:42:33;;;;;;;38.83;25.30;;;8.80;87.20;;;;;;5027009;28;20133;-64
2023/10/27 03:44:59;;;;;;;35.33;24.20;;;8.70;87.20;;;;;;5019457;28;20538;-64
2023/10/27 03:47:24;;;;;;;37.43;24.67;;;8.80;87.30;;;;;;5023517;28;20473;-64
2023/10/27 03:49:51;;;;;;;39.73;24.97;;;8.70;87.30;;;;;;5022618;28;20382;-64
2023/10/27 03:52:17;;;;;;;37.00;24.70;;;8.70;87.30;;;;;;5027888;28;20049;-64
2023/10/27 03:54:42;;;;;;;38.97;25.50;;;8.70;87.20;;;;;;5028338;28;20045;-64
2023/10/27 03:57:08;;;;;;;35.63;25.50;;;8.70;87.20;;;;;;5027935;28;20455;-64
2023/10/27 03:59:34;;;;;;;40.33;26.50;;;8.70;87.30;;;;;;5018098;28;20061;-64
2023/10/27 04:02:00;;;;;;;38.17;26.03;;;8.70;87.30;;;;;;5026360;28;20192;-64
2023/10/27 04:04:25;;;;;;;45.73;27.37;;;8.70;87.30;;;;;;5027720;28;20045;-64
2023/10/27 04:06:53;;;;;;;40.20;26.73;;;8.70;87.30;;;;;;5028088;28;20041;-64
2023/10/27 04:09:21;;;;;;;40.77;26.73;;;8.70;87.40;;;;;;5018256;28;20053;-64
2023/10/27 04:11:47;;;;;;;42.77;27.50;;;8.70;87.40;;;;;;5037787;28;20049;-63
2023/10/27 04:14:12;;;;;;;44.07;27.87;;;8.70;87.40;;;;;;5028773;28;20051;-64
2023/10/27 04:16:38;;;;;;;40.13;25.53;;;8.80;87.40;;;;;;5010513;28;20066;-64
2023/10/27 04:19:04;;;;;;;41.33;26.20;;;8.70;87.50;;;;;;5013903;28;20728;-64
2023/10/27 04:21:29;;;;;;;40.87;26.90;;;8.70;87.40;;;;;;5028273;28;20041;-64
2023/10/27 04:23:56;;;;;;;42.30;27.30;;;8.70;87.40;;;;;;5028818;28;20520;-64
2023/10/27 04:26:21;;;;;;;43.00;27.80;;;8.70;87.30;;;;;;5023159;28;20405;-64
2023/10/27 04:28:47;;;;;;;42.30;26.67;;;8.70;87.50;;;;;;5020870;28;20057;-64
2023/10/27 04:31:13;;;;;;;42.80;27.67;;;8.70;87.40;;;;;;5026575;28;20468;-64
2023/10/27 04:33:38;;;;;;;42.80;27.20;;;8.70;87.40;;;;;;5052044;28;20158;-64
2023/10/27 04:36:05;;;;;;;43.37;26.17;;;8.70;87.40;;;;;;5024738;28;20053;-64
2023/10/27 04:38:30;;;;;;;41.70;27.17;;;8.60;87.30;;;;;;5030052;28;20104;-64
2023/10/27 04:40:56;;;;;;;37.50;25.93;;;8.60;87.30;;;;;;5024329;28;20041;-63
2023/10/27 04:43:22;;;;;;;39.77;26.93;;;8.60;87.30;;;;;;5019324;28;20049;-64
2023/10/27 04:45:47;;;;;;;41.93;27.33;;;8.60;87.30;;;;;;5015683;28;20081;-64
2023/10/27 04:48:14;;;;;;;44.67;26.40;;;8.60;87.20;;;;;;5019673;28;20456;-64
2023/10/27 04:50:39;;;;;;;45.40;28.87;;;8.60;87.30;;;;;;5015113;28;20048;-63
2023/10/27 04:53:05;;;;;;;45.20;29.40;;;8.60;87.20;;;;;;5028620;28;20053;-64
2023/10/27 04:55:31;;;;;;;47.83;28.90;;;8.60;87.30;;;;;;5014697;28;20045;-64
2023/10/27 04:57:56;;;;;;;47.90;29.10;;;8.50;87.20;;;;;;5027124;28;20490;-64
2023/10/27 05:00:22;;;;;;;46.13;29.13;;;8.50;87.30;;;;;;5019205;28;20449;-64
2023/10/27 05:02:49;;;;;;;48.17;30.20;;;8.50;87.40;;;;;;5027697;28;20049;-64
2023/10/27 05:05:14;;;;;;;52.47;30.33;;;8.50;87.30;;;;;;5028039;28;20496;-64
2023/10/27 05:07:40;;;;;;;47.83;29.30;;;8.50;87.30;;;;;;5027653;28;20092;-64
2023/10/27 05:10:07;;;;;;;51.97;29.20;;;8.40;87.30;;;;;;5013813;28;20045;-64
2023/10/27 05:12:36;;;;;;;46.33;28.77;;;8.40;87.20;;;;;;5028134;28;20049;-64
2023/10/27 05:15:03;;;;;;;50.70;30.77;;;8.40;87.30;;;;;;5022439;28;20112;-63
2023/10/27 05:17:29;;;;;;;49.27;29.13;;;8.40;87.30;;;;;;5008003;28;20136;-64
2023/10/27 05:19:54;;;;;;;49.63;29.90;;;8.30;87.30;;;;;;5024631;28;20041;-64
2023/10/27 05:22:23;;;;;;;51.27;30.13;;;8.40;87.30;;;;;;5031129;28;20052;-64
2023/10/27 05:24:48;;;;;;;47.80;29.93;;;8.30;87.30;;;;;;5031748;28;20306;-64
2023/10/27 05:27:14;;;;;;;51.03;30.83;;;8.30;87.40;;;;;;5031477;28;20049;-64
2023/10/27 05:29:39;;;;;;;47.80;30.23;;;8.30;87.40;;;;;;5031418;28;21251;-64
2023/10/27 05:32:05;;;;;;;53.23;30.63;;;8.30;87.40;;;;;;5031356;28;20037;-64
2023/10/27 05:34:31;;;;;;;48.40;30.20;;;8.30;87.50;;;;;;5033232;28;20357;-64
2023/10/27 05:36:57;;;;;;;48.07;29.17;;;8.30;87.60;;;;;;5024313;28;20111;-64
2023/10/27 05:39:26;;;;;;;48.77;30.90;;;8.40;87.60;;;;;;5028001;28;20045;-64
2023/10/27 05:41:52;;;;;;;47.70;29.97;;;8.40;87.60;;;;;;5010732;28;20424;-64
2023/10/27 05:44:18;;;;;;;48.07;29.77;;;8.40;87.70;;;;;;5029068;28;20053;-64
2023/10/27 05:46:43;;;;;;;49.73;30.00;;;8.40;87.70;;;;;;5019437;28;20053;-64
2023/10/27 05:49:09;;;;;;;48.17;30.30;;;8.40;87.80;;;;;;5027759;28;20605;-63
2023/10/27 05:51:35;;;;;;;52.47;31.47;;;8.40;87.80;;;;;;5028204;28;20447;-64
2023/10/27 05:54:01;;;;;;;54.80;31.07;;;8.50;87.80;;;;;;5027400;28;20054;-64
2023/10/27 05:56:27;;;;;;;47.63;30.10;;;8.50;87.70;;;;;;5028291;28;20420;-64
2023/10/27 05:58:54;;;;;;;49.23;29.07;;;8.50;87.80;;;;;;5027903;28;20038;-64
2023/10/27 06:01:20;;;;;;;45.93;29.70;;;8.50;87.80;;;;;;5017429;28;20160;-64
2023/10/27 06:03:46;;;;;;;47.13;29.37;;;8.50;87.80;;;;;;5025034;28;20148;-64
2023/10/27 06:06:12;;;;;;;43.87;27.50;;;8.50;87.80;;;;;;5027944;28;20079;-64
2023/10/27 06:08:46;;;;;;;49.40;29.17;;;8.60;87.80;;;;;;5027757;28;20488;-64
2023/10/27 06:11:13;;;;;;;45.73;29.30;;;8.60;87.80;;;;;;5033929;28;20047;-64
2023/10/27 06:13:39;;;;;;;45.83;29.27;;;8.60;87.70;;;;;;5025237;28;20416;-64
2023/10/27 06:16:06;;;;;;;44.60;28.77;;;8.60;87.80;;;;;;5023902;28;20053;-64
2023/10/27 06:18:32;;;;;;;45.67;29.77;;;8.60;87.80;;;;;;5021339;28;20064;-64
2023/10/27 06:20:57;;;;;;;44.87;27.90;;;8.60;87.80;;;;;;5027038;28;20057;-64
2023/10/27 06:23:24;;;;;;;44.30;28.27;;;8.60;87.70;;;;;;5023220;28;20045;-64
2023/10/27 06:25:50;;;;;;;46.27;28.87;;;8.60;87.80;;;;;;5026293;28;20131;-64
2023/10/27 06:28:16;;;;;;;45.30;28.00;;;8.60;87.70;;;;;;5026782;28;20045;-64
2023/10/27 06:30:41;;;;;;;43.03;27.17;;;8.60;87.70;;;;;;5023189;28;20045;-64
2023/10/27 06:33:07;;;;;;;43.63;27.67;;;8.60;87.90;;;;;;5025821;28;20419;-64
2023/10/27 06:35:33;;;;;;;45.43;28.00;;;8.60;87.80;;;;;;5019980;28;20378;-64
2023/10/27 06:37:59;;;;;;;43.93;27.03;;;8.60;87.80;;;;;;5022520;28;20412;-64
2023/10/27 06:40:24;;;;;;;40.93;26.80;;;8.60;87.80;;;;;;5024887;28;20051;-64
2023/10/27 06:42:50;;;;;;;41.37;27.67;;;8.60;87.80;;;;;;5010261;28;20084;-64
2023/10/27 06:45:16;;;;;;;42.83;28.70;;;8.60;87.80;;;;;;5027778;28;20497;-64
2023/10/27 06:47:43;;;;;;;42.93;27.53;;;8.70;87.80;;;;;;5019670;28;20084;-64
2023/10/27 06:50:09;;;;;;;37.43;25.17;;;8.70;87.90;;;;;;5012970;28;20061;-65
2023/10/27 06:52:34;;;;;;;39.27;26.30;;;8.70;87.80;;;;;;5015419;28;20053;-64
2023/10/27 06:55:01;;;;;;;39.40;26.07;;;8.80;87.80;;;;;;5017979;28;20076;-64
2023/10/27 06:57:27;;;;;;;38.87;25.30;;;8.80;87.80;;;;;;5017470;28;20045;-64
2023/10/27 06:59:56;;;;;;;38.77;25.37;;;8.80;87.80;;;;;;5018142;28;20045;-64
2023/10/27 07:02:25;;;;;;;41.13;27.07;;;8.80;87.80;;;;;;5015710;28;20053;-64
2023/10/27 07:04:50;;;;;;;35.80;24.57;;;8.80;87.80;;;;;;5015753;28;20061;-64
2023/10/27 07:07:16;;;;;;;37.80;25.23;;;8.80;87.80;;;;;;5016838;28;20053;-64
2023/10/27 07:09:42;;;;;;;38.37;24.90;;;8.80;87.80;;;;;;5016181;28;20053;-64
2023/10/27 07:12:08;;;;;;;36.70;25.73;;;8.90;87.80;;;;;;5016962;28;20415;-64
2023/10/27 07:14:37;;;;;;;35.83;24.80;;;8.90;87.80;;;;;;5017220;28;20077;-64
2023/10/27 07:17:03;;;;;;;39.63;26.07;;;8.90;87.80;;;;;;5016439;28;20512;-64
2023/10/27 07:19:33;;;;;;;34.30;24.37;;;8.90;87.80;;;;;;5016151;28;20091;-64
2023/10/27 07:22:00;;;;;;;36.70;25.37;;;8.90;87.80;;;;;;5016301;28;20107;-64
2023/10/27 07:24:27;;;;;;;38.87;24.47;;;8.90;87.70;;;;;;5016239;28;20060;-64
2023/10/27 07:26:53;;;;;;;35.07;25.90;;;8.90;87.60;;;;;;5016731;28;20128;-64
2023/10/27 07:29:19;;;;;;;39.50;26.87;;;9.00;87.70;;;;;;5015289;28;20048;-64
2023/10/27 07:31:44;;;;;;;35.80;25.90;;;8.90;87.70;;;;;;5016936;28;20084;-64
2023/10/27 07:34:10;;;;;;;37.20;25.30;;;9.00;87.70;;;;;;5015383;28;20553;-64
2023/10/27 07:36:36;;;;;;;37.63;26.40;;;9.00;87.70;;;;;;5017367;28;20473;-64
2023/10/27 07:39:02;;;;;;;36.93;26.70;;;9.00;87.60;;;;;;5015147;28;20045;-64
2023/10/27 07:41:28;;;;;;;36.30;25.53;;;9.00;87.60;;;;;;5015176;28;20179;-64
2023/10/27 07:43:53;;;;;;;29.37;22.43;;;9.00;87.60;;;;;;5015798;28;20053;-64
2023/10/27 07:46:19;;;;;;;33.43;24.13;;;9.00;87.50;;;;;;5016998;28;20128;-64
2023/10/27 07:48:45;;;;;;;29.13;22.13;;;9.00;87.50;;;;;;5016349;28;20770;-64
2023/10/27 07:51:10;;;;;;;32.83;23.87;;;9.00;87.50;;;;;;5015746;28;20052;-64
2023/10/27 07:53:37;;;;;;;33.40;25.13;;;9.00;87.50;;;;;;5015976;28;20049;-64
2023/10/27 07:56:04;;;;;;;33.10;24.23;;;9.00;87.50;;;;;;5016279;28;20156;-64
2023/10/27 07:58:30;;;;;;;32.40;24.17;;;9.10;87.60;;;;;;5016109;28;20610;-64
2023/10/27 08:00:56;;;;;;;33.70;25.70;;;9.10;87.60;;;;;;5015939;28;20053;-64
2023/10/27 08:03:22;;;;;;;35.73;26.77;;;9.10;87.50;;;;;;5015902;28;20141;-64
2023/10/27 08:05:48;;;;;;;35.87;26.80;;;9.10;87.50;;;;;;5016763;28;20208;-64
2023/10/27 08:08:14;;;;;;;35.60;27.07;;;9.20;87.40;;;;;;5014296;28;20050;-64
2023/10/27 08:10:40;;;;;;;33.07;26.10;;;9.10;87.40;;;;;;5015002;28;20053;-64
2023/10/27 08:13:06;;;;;;;34.73;26.17;;;9.20;87.40;;;;;;5015412;28;20044;-64
2023/10/27 08:15:34;;;;;;;32.93;25.33;;;9.20;87.40;;;;;;5015475;28;20041;-64
2023/10/27 08:18:01;;;;;;;32.07;25.53;;;9.20;87.40;;;;;;5015224;28;20412;-64
2023/10/27 08:20:28;;;;;;;29.87;23.60;;;9.20;87.30;;;;;;5014457;28;20057;-64
2023/10/27 08:22:54;;;;;;;32.10;23.03;;;9.20;87.20;;;;;;5014980;28;20169;-64
2023/10/27 08:25:22;;;;;;;28.47;22.57;;;9.20;87.20;;;;;;5016434;28;20424;-64
2023/10/27 08:27:51;;;;;;;29.57;22.23;;;9.20;87.20;;;;;;4998572;28;20041;-64
2023/10/27 08:30:18;;;;;;;25.73;22.07;;;9.30;87.10;;;;;;5015256;28;20045;-64
2023/10/27 08:32:44;;;;;;;28.20;21.30;;;9.40;87.00;;;;;;5015005;28;20637;-63
2023/10/27 08:35:10;;;;;;;23.03;19.87;;;9.40;86.80;;;;;;5016079;28;20111;-64
2023/10/27 08:37:36;;;;;;;26.83;21.00;;;9.40;86.80;;;;;;5016162;28;20257;-64
2023/10/27 08:40:03;;;;;;;25.23;20.70;;;9.40;86.80;;;;;;5016297;28;20061;-64
2023/10/27 08:42:33;;;;;;;28.17;22.07;;;9.40;86.70;;;;;;5016278;28;20057;-64
2023/10/27 08:44:59;;;;;;;25.20;20.90;;;9.40;86.80;;;;;;5015857;28;20684;-64
2023/10/27 08:47:30;;;;;;;25.80;20.33;;;9.50;86.90;;;;;;5015308;28;20710;-64
2023/10/27 08:49:56;;;;;;;22.00;18.70;;;9.50;86.60;;;;;;5014537;28;20046;-64
2023/10/27 08:52:22;;;;;;;24.73;19.47;;;9.50;86.70;;;;;;5014719;28;20061;-64
2023/10/27 08:54:48;;;;;;;24.97;18.93;;;9.50;86.60;;;;;;5019963;28;20053;-64
2023/10/27 08:57:14;;;;;;;22.20;18.67;;;9.60;86.60;;;;;;5017570;28;20076;-64
2023/10/27 08:59:39;;;;;;;19.47;17.27;;;9.60;86.30;;;;;;5019336;28;20856;-64
2023/10/27 09:02:05;;;;;;;21.17;17.60;;;9.50;86.30;;;;;;5019162;28;20555;-64
2023/10/27 09:04:33;;;;;;;22.90;18.60;;;9.50;86.00;;;;;;5019025;28;20518;-64
2023/10/27 09:07:00;;;;;;;21.20;17.53;;;9.50;86.00;;;;;;5019649;28;20065;-64
2023/10/27 09:09:26;;;;;;;17.80;15.90;;;9.50;86.00;;;;;;5017633;28;20045;-64
2023/10/27 09:11:52;;;;;;;18.27;15.43;;;9.50;86.00;;;;;;5017847;28;20321;-64
2023/10/27 09:14:33;;;;;;;16.87;15.07;;;9.50;86.00;;;;;;5019407;28;20057;-64
2023/10/27 09:17:11;;;;;;;16.23;14.43;;;9.50;86.00;;;;;;5019521;28;20520;-65
2023/10/27 09:19:39;;;;;;;15.00;12.93;;;9.50;85.80;;;;;;5018551;28;20080;-64
2023/10/27 09:22:15;;;;;;;14.37;12.83;;;9.50;85.70;;;;;;5018415;28;20045;-65
2023/10/27 09:24:42;;;;;;;15.37;13.20;;;9.50;85.80;;;;;;5019687;28;20076;-65
2023/10/27 09:27:08;;;;;;;15.30;13.17;;;9.50;85.60;;;;;;5018700;28;20045;-64
2023/10/27 09:29:41;;;;;;;13.90;11.67;;;9.50;85.70;;;;;;5019539;28;20134;-64
2023/10/27 09:32:27;;;;;;;13.03;11.67;;;9.50;85.70;;;;;;5019090;28;20519;-64
2023/10/27 09:35:09;;;;;;;16.63;12.33;;;9.50;85.60;;;;;;5018196;28;20550;-65
2023/10/27 09:37:37;;;;;;;12.53;11.23;;;9.50;85.70;;;;;;5019630;28;20052;-64
2023/10/27 09:40:08;;;;;;;12.47;11.17;;;9.50;85.80;;;;;;5018427;28;20057;-64
2023/10/27 09:42:35;;;;;;;;;;;9.60;85.70;;;;;;5020182;28;20497;-65
2023/10/27 09:45:08;;;;;;;12.63;11.00;;;9.60;85.50;;;;;;5020203;28;19968;-65
2023/10/27 09:47:41;;;;;;;15.00;11.97;;;9.60;85.50;;;;;;5020041;28;20403;-65
2023/10/27 09:50:12;;;;;;;12.57;10.57;;;9.60;85.40;;;;;;5018675;28;20472;-65
2023/10/27 09:52:40;;;;;;;12.43;10.93;;;9.60;85.30;;;;;;5016799;28;20053;-65
2023/10/27 09:55:07;;;;;;;12.67;11.07;;;9.60;85.30;;;;;;5017213;28;20482;-64
2023/10/27 09:57:34;;;;;;;13.83;11.20;;;9.60;85.20;;;;;;5017759;28;20700;-64
2023/10/27 10:00:03;;;;;;;13.20;10.93;;;9.60;85.20;;;;;;5018566;28;20049;-65
2023/10/27 10:02:30;;;;;;;11.37;10.17;;;9.60;85.30;;;;;;5018948;28;20060;-64
2023/10/27 10:04:57;;;;;;;11.67;10.30;;;9.60;85.30;;;;;;5014211;28;20471;-65
2023/10/27 10:07:32;;;;;;;11.07;9.90;;;9.60;85.30;;;;;;5018296;28;20412;-64
2023/10/27 10:10:15;;;;;;;11.63;9.90;;;9.70;85.20;;;;;;5016343;28;20049;-65
2023/10/27 10:13:00;;;;;;;12.73;9.40;;;9.70;85.30;;;;;;5016745;28;20740;-65
2023/10/27 10:15:31;;;;;;;10.63;9.30;;;9.80;85.20;;;;;;5016584;28;20407;-65
2023/10/27 10:18:00;;;;;;;11.75;8.82;;;9.80;85.20;;;;;;5017284;28;20188;-64
2023/10/27 10:20:44;;;;;;;11.03;9.30;;;9.80;85.00;;;;;;5017227;28;20419;-64
2023/10/27 10:23:10;;;;;;;11.17;9.83;;;9.90;85.10;;;;;;5017577;28;20470;-65
2023/10/27 10:25:48;;;;;;;10.60;9.17;;;10.00;84.70;;;;;;5018267;28;20057;-64
2023/10/27 10:28:14;;;;;;;10.27;9.20;;;10.00;84.70;;;;;;5016996;28;20054;-65
2023/10/27 10:30:44;;;;;;;10.10;9.00;;;10.00;84.60;;;;;;5017846;28;20127;-64
2023/10/27 10:33:28;;;;;;;9.67;8.67;;;10.10;84.90;;;;;;5017851;28;20400;-64
2023/10/27 10:38:59;;;;;;;9.18;8.20;;;10.10;84.50;;;;;;5018370;28;20110;-65
2023/10/27 10:41:47;;;;;;;9.30;8.30;;;10.10;84.10;;;;;;5017820;28;20053;-65
2023/10/27 10:44:16;;;;;;;9.57;8.60;;;10.20;84.20;;;;;;5017463;28;20492;-65
2023/10/27 10:46:44;;;;;;;9.90;8.90;;;10.10;84.00;;;;;;5017336;28;20059;-65
2023/10/27 10:49:12;;;;;;;9.17;8.27;;;10.10;83.90;;;;;;5017649;28;20103;-65
2023/10/27 10:51:38;;;;;;;9.63;8.63;;;10.10;83.70;;;;;;5017476;28;20594;-65
2023/10/27 10:54:12;;;;;;;9.87;8.87;;;10.10;83.70;;;;;;5017362;28;20107;-64
2023/10/27 10:56:38;;;;;;;9.47;8.50;;;10.10;83.90;;;;;;5018344;28;20191;-65
2023/10/27 10:59:04;;;;;;;10.70;8.83;;;10.10;83.80;;;;;;5017726;28;20041;-65
2023/10/27 11:01:30;;;;;;;10.90;8.63;;;10.10;83.70;;;;;;5018184;28;20655;-64
2023/10/27 11:03:56;;;;;;;9.50;8.30;;;10.10;83.90;;;;;;5016400;28;20071;-65
2023/10/27 11:06:28;;;;;;;10.83;8.60;;;10.10;84.00;;;;;;5014673;28;20833;-65
2023/10/27 11:08:54;;;;;;;10.95;8.80;;;10.10;84.20;;;;;;5017040;28;20135;-64
2023/10/27 11:11:20;;;;;;;10.37;8.60;;;10.10;83.80;;;;;;5016078;28;20103;-64
2023/10/27 11:13:49;;;;;;;10.03;9.03;;;10.10;84.00;;;;;;5016501;28;20053;-65
2023/10/27 11:16:22;;;;;;;11.27;9.27;;;10.10;84.00;;;;;;5016521;28;20148;-65
2023/10/27 11:18:53;;;;;;;9.70;8.67;;;10.20;83.90;;;;;;5016322;28;20413;-65
2023/10/27 11:21:21;;;;;;;12.15;10.15;;;10.20;83.90;;;;;;5018126;28;20053;-63
2023/10/27 11:23:48;;;;;;;12.70;10.50;;;10.20;83.90;;;;;;5017963;28;20150;-63
2023/10/27 11:26:18;;;;;;;11.67;10.10;;;10.20;84.00;;;;;;5017030;28;20053;-63
2023/10/27 11:28:45;;;;;;;12.80;11.00;;;10.20;84.10;;;;;;5016727;28;20486;-64
2023/10/27 11:31:23;;;;;;;11.90;10.17;;;10.20;83.80;;;;;;5015657;28;20724;-64
2023/10/27 11:34:05;;;;;;;13.93;10.13;;;10.20;83.90;;;;;;5017011;28;20107;-65
2023/10/27 11:37:01;;;;;;;11.53;9.23;;;10.20;84.00;;;;;;5016607;28;20425;-64
2023/10/27 11:39:27;;;;;;;11.70;9.03;;;10.20;84.10;;;;;;5015399;28;20191;-64
2023/10/27 11:42:02;;;;;;;11.47;9.67;;;10.20;84.20;;;;;;5015834;28;20171;-64
2023/10/27 11:44:35;;;;;;;11.83;10.07;;;10.30;84.10;;;;;;5016445;28;20072;-65
2023/10/27 11:47:01;;;;;;;13.23;10.57;;;10.30;84.10;;;;;;5016226;28;20045;-64
2023/10/27 11:49:27;;;;;;;13.13;11.03;;;10.30;84.00;;;;;;5014987;28;20123;-64
2023/10/27 11:51:55;;;;;;;13.03;10.63;;;10.20;83.80;;;;;;5014976;28;20053;-64
2023/10/27 11:54:25;;;;;;;13.50;10.70;;;10.20;83.70;;;;;;5016227;28;20053;-64
2023/10/27 11:56:52;;;;;;;13.67;11.43;;;10.20;83.90;;;;;;5016514;28;20045;-65
2023/10/27 11:59:18;;;;;;;14.60;10.90;;;10.20;83.80;;;;;;5016017;28;20057;-64
2023/10/27 12:01:44;;;;;;;14.00;12.00;;;10.20;83.70;;;;;;5015460;28;20045;-64
2023/10/27 12:04:10;;;;;;;16.47;11.63;;;10.20;83.70;;;;;;5015376;28;20046;-64
2023/10/27 12:06:40;;;;;;;16.87;12.13;;;10.10;83.60;;;;;;5015656;28;20048;-64
2023/10/27 12:09:07;;;;;;;16.83;12.10;;;10.10;83.70;;;;;;5015581;28;20127;-64
2023/10/27 12:11:34;;;;;;;15.63;12.60;;;10.10;83.70;;;;;;5015790;28;20661;-64
2023/10/27 12:13:59;;;;;;;18.03;13.83;;;10.10;84.00;;;;;;5014903;28;20064;-64
2023/10/27 12:16:27;;;;;;;19.10;14.80;;;10.10;83.90;;;;;;5015642;28;20065;-64
2023/10/27 12:18:56;;;;;;;17.33;14.37;;;10.10;83.70;;;;;;5013133;28;20045;-64
2023/10/27 12:21:26;;;;;;;17.83;14.97;;;10.10;83.70;;;;;;5015779;28;20103;-64
2023/10/27 12:23:53;;;;;;;21.47;15.90;;;10.10;83.90;;;;;;5015316;28;20053;-64
2023/10/27 12:26:20;;;;;;;20.80;16.03;;;10.10;83.70;;;;;;5015649;28;20053;-64
2023/10/27 12:28:46;;;;;;;21.73;16.93;;;10.10;83.60;;;;;;5018043;28;20095;-64
2023/10/27 12:31:13;;;;;;;19.50;16.03;;;10.10;83.70;;;;;;5019325;28;20990;-64
2023/10/27 12:33:42;;;;;;;20.63;16.40;;;10.10;83.80;;;;;;5020279;28;20049;-64
2023/10/27 12:36:11;;;;;;;19.33;16.43;;;10.10;83.90;;;;;;5019507;28;20056;-64
2023/10/27 12:38:38;;;;;;;19.90;16.20;;;10.10;83.80;;;;;;5020289;28;20057;-64